Time;durP1;ratioP1;P1;durP2;ratioP2;P2;SDS_P1;SDS_P2;PMS_P1;PMS_P2;Temp;Humidity;BMP_temperature;BMP_pressure;BME280_temperature;BME280_humidity;BME280_pressure;Samples;Min_cycle;Max_cycle;Signal;HPM_P1;HPM_P2
2024/03/10 00:01:27;;;;;;;5.60;4.00;;;8.80;80.60;;;;;;5050435;27;20684;-75
2024/03/10 00:03:54;;;;;;;4.57;4.03;;;8.80;81.80;;;;;;5034734;28;20654;-75
2024/03/10 00:06:20;;;;;;;4.57;4.17;;;8.80;82.50;;;;;;5021167;28;20635;-75
2024/03/10 00:08:47;;;;;;;4.00;3.60;;;8.80;81.70;;;;;;5020158;28;20626;-75
2024/03/10 00:11:14;;;;;;;4.37;3.97;;;8.80;80.90;;;;;;5016763;28;21315;-74
2024/03/10 00:13:41;;;;;;;7.27;4.57;;;8.80;80.80;;;;;;5022538;28;20628;-75
2024/03/10 00:16:09;;;;;;;12.13;4.43;;;8.80;80.80;;;;;;5017406;28;20657;-75
2024/03/10 00:18:37;;;;;;;4.70;4.20;;;8.90;80.90;;;;;;5021427;28;20636;-75
2024/03/10 00:21:04;;;;;;;5.40;4.40;;;8.90;81.20;;;;;;5020746;28;20668;-75
2024/03/10 00:23:31;;;;;;;5.53;4.30;;;8.90;81.60;;;;;;5025035;28;20714;-75
2024/03/10 00:25:58;;;;;;;6.53;4.30;;;8.90;81.90;;;;;;5026323;28;21198;-75
2024/03/10 00:28:25;;;;;;;7.33;4.70;;;8.80;82.30;;;;;;5029917;28;21019;-75
2024/03/10 00:30:52;;;;;;;6.57;4.73;;;8.80;82.00;;;;;;5032733;28;20628;-75
2024/03/10 00:33:20;;;;;;;6.33;4.40;;;8.80;82.30;;;;;;5028590;28;20631;-75
2024/03/10 00:35:48;;;;;;;4.70;3.87;;;8.80;82.30;;;;;;5019745;28;21192;-75
2024/03/10 00:38:15;;;;;;;4.97;4.47;;;8.80;83.60;;;;;;5027444;28;20631;-75
2024/03/10 00:40:42;;;;;;;4.57;4.00;;;8.80;83.40;;;;;;5027872;28;20623;-75
2024/03/10 00:43:09;;;;;;;5.03;4.30;;;8.80;84.10;;;;;;5032539;27;20702;-75
2024/03/10 00:45:35;;;;;;;8.00;4.43;;;8.70;83.80;;;;;;5025934;28;20633;-75
2024/03/10 00:48:02;;;;;;;5.40;4.90;;;8.70;84.70;;;;;;5024039;28;20635;-75
2024/03/10 00:50:29;;;;;;;5.50;4.80;;;8.70;84.90;;;;;;5024062;28;20983;-75
2024/03/10 00:52:57;;;;;;;5.60;5.10;;;8.70;85.40;;;;;;5031627;28;21198;-74
2024/03/10 00:55:24;;;;;;;5.23;4.40;;;8.60;84.60;;;;;;5029940;28;20620;-75
2024/03/10 00:57:51;;;;;;;5.47;4.60;;;8.50;84.80;;;;;;5022817;28;20655;-75
2024/03/10 01:00:18;;;;;;;7.33;5.77;;;8.50;85.60;;;;;;5014585;28;20639;-75
2024/03/10 01:02:47;;;;;;;6.00;5.40;;;8.40;86.80;;;;;;5021542;28;20663;-75
2024/03/10 01:05:14;;;;;;;5.70;5.10;;;8.30;88.10;;;;;;5019472;28;20653;-74
2024/03/10 01:07:41;;;;;;;9.60;5.30;;;8.30;88.70;;;;;;5026104;28;20626;-75
2024/03/10 01:10:11;;;;;;;7.20;5.60;;;8.30;88.90;;;;;;5024875;28;20633;-75
2024/03/10 01:12:38;;;;;;;6.67;6.00;;;8.30;89.40;;;;;;5022234;28;20677;-75
2024/03/10 01:15:07;;;;;;;9.63;6.50;;;8.30;90.10;;;;;;5022856;28;20707;-75
2024/03/10 01:17:33;;;;;;;9.90;6.60;;;8.30;89.80;;;;;;5020793;28;21052;-74
2024/03/10 01:20:01;;;;;;;7.20;5.40;;;8.30;89.70;;;;;;5030347;28;20632;-75
2024/03/10 01:22:27;;;;;;;7.00;5.50;;;8.30;89.50;;;;;;5025666;28;20660;-76
2024/03/10 01:24:55;;;;;;;7.27;6.13;;;8.30;89.60;;;;;;5029419;28;20997;-74
2024/03/10 01:27:23;;;;;;;5.17;4.60;;;8.30;89.90;;;;;;5027411;28;20974;-75
2024/03/10 01:29:50;;;;;;;6.17;5.23;;;8.30;90.10;;;;;;5021995;28;20624;-75
2024/03/10 01:32:17;;;;;;;7.20;5.70;;;8.30;90.10;;;;;;5016597;28;20631;-75
2024/03/10 01:34:44;;;;;;;6.50;5.60;;;8.30;90.20;;;;;;5028771;28;20627;-74
2024/03/10 01:37:12;;;;;;;5.90;5.40;;;8.30;90.30;;;;;;5025037;28;20710;-74
2024/03/10 01:39:39;;;;;;;8.80;5.57;;;8.20;90.80;;;;;;5026790;28;20632;-75
2024/03/10 01:42:05;;;;;;;5.70;5.10;;;8.20;90.80;;;;;;5026405;28;20635;-75
2024/03/10 01:44:34;;;;;;;5.73;5.20;;;8.20;90.60;;;;;;5018929;28;20623;-75
2024/03/10 01:47:01;;;;;;;7.43;5.93;;;8.20;90.50;;;;;;5024941;28;20642;-74
2024/03/10 01:49:28;;;;;;;5.83;5.27;;;8.20;90.40;;;;;;5028117;28;20624;-74
2024/03/10 01:51:56;;;;;;;8.00;6.00;;;8.10;90.60;;;;;;5024613;28;21183;-75
2024/03/10 01:54:26;;;;;;;5.50;4.90;;;8.10;90.60;;;;;;5020706;28;20629;-75
2024/03/10 01:56:53;;;;;;;6.50;5.67;;;8.20;90.50;;;;;;5024234;28;21063;-75
2024/03/10 01:59:21;;;;;;;6.20;5.67;;;8.20;90.30;;;;;;5028167;28;20627;-75
2024/03/10 02:01:50;;;;;;;6.63;5.93;;;8.20;90.40;;;;;;5024107;28;20640;-75
2024/03/10 02:04:19;;;;;;;6.80;5.43;;;8.20;90.20;;;;;;5024262;28;20708;-75
2024/03/10 02:06:46;;;;;;;6.97;5.00;;;8.10;90.10;;;;;;5025166;28;20669;-75
2024/03/10 02:09:13;;;;;;;5.77;5.27;;;8.10;90.50;;;;;;5023386;28;20672;-75
2024/03/10 02:11:40;;;;;;;5.30;4.70;;;8.10;90.20;;;;;;5031195;28;20996;-75
2024/03/10 02:14:07;;;;;;;6.57;4.97;;;8.00;90.30;;;;;;5022833;28;20684;-74
2024/03/10 02:16:34;;;;;;;4.70;4.20;;;8.00;90.90;;;;;;5025418;28;21034;-74
2024/03/10 02:19:02;;;;;;;7.00;5.13;;;8.00;90.30;;;;;;5017230;28;20724;-74
2024/03/10 02:21:29;;;;;;;5.93;5.33;;;8.00;90.70;;;;;;5024151;28;20619;-74
2024/03/10 02:24:11;;;;;;;5.43;4.93;;;8.00;89.30;;;;;;5024383;28;20653;-74
2024/03/10 02:26:45;;;;;;;5.33;4.80;;;8.00;89.70;;;;;;5024210;28;21202;-75
2024/03/10 02:29:18;;;;;;;4.57;3.93;;;8.00;90.40;;;;;;5021083;28;20620;-74
2024/03/10 02:48:19;;;;;;;3.93;3.60;;;8.30;83.90;;;;;;5027997;28;20623;-75
2024/03/10 02:50:47;;;;;;;4.20;3.80;;;8.30;84.30;;;;;;5027973;28;20620;-74
2024/03/10 02:53:15;;;;;;;3.50;3.20;;;8.30;84.80;;;;;;5023576;28;20632;-74
2024/03/10 02:55:44;;;;;;;3.50;3.20;;;8.20;83.70;;;;;;5026610;28;20654;-75
2024/03/10 02:58:12;;;;;;;2.90;2.70;;;8.30;83.30;;;;;;5026378;28;20624;-75
2024/03/10 03:00:41;;;;;;;5.00;3.50;;;8.20;82.90;;;;;;5027165;28;20731;-75
2024/03/10 03:03:08;;;;;;;3.50;3.20;;;8.10;84.30;;;;;;5028185;28;20650;-75
2024/03/10 03:05:36;;;;;;;5.80;3.87;;;8.00;85.80;;;;;;5031563;28;20616;-75
2024/03/10 03:08:03;;;;;;;3.83;3.43;;;8.00;87.10;;;;;;5035540;28;20615;-75
2024/03/10 03:10:31;;;;;;;3.77;3.30;;;7.90;87.50;;;;;;5021801;28;20657;-75
2024/03/10 03:12:58;;;;;;;4.97;4.03;;;7.90;87.30;;;;;;5029624;28;20671;-75
2024/03/10 03:15:27;;;;;;;4.00;3.53;;;7.80;88.50;;;;;;5030559;28;20745;-75
2024/03/10 03:17:55;;;;;;;4.70;3.90;;;7.80;88.70;;;;;;5017028;28;20623;-75
2024/03/10 03:20:24;;;;;;;4.90;3.80;;;7.70;89.20;;;;;;5025591;28;20676;-75
2024/03/10 03:22:51;;;;;;;4.90;3.10;;;7.60;90.00;;;;;;5034087;28;21013;-75
2024/03/10 03:25:20;;;;;;;4.50;3.37;;;7.50;90.50;;;;;;5030591;28;20626;-75
2024/03/10 03:27:50;;;;;;;4.33;3.30;;;7.50;90.30;;;;;;5020058;28;21252;-75
2024/03/10 03:30:17;;;;;;;4.60;3.60;;;7.50;90.20;;;;;;5028582;28;20631;-75
2024/03/10 03:32:47;;;;;;;6.03;3.60;;;7.50;90.30;;;;;;5047702;27;20623;-75
2024/03/10 03:35:15;;;;;;;4.80;3.27;;;7.40;90.40;;;;;;5022993;28;20656;-75
2024/03/10 03:37:43;;;;;;;8.63;3.63;;;7.40;90.50;;;;;;5032143;28;20630;-75
2024/03/10 03:40:13;;;;;;;5.23;3.87;;;7.30;90.70;;;;;;5027527;28;20638;-75
2024/03/10 03:42:40;;;;;;;3.27;2.90;;;7.40;90.60;;;;;;5030404;28;21002;-75
2024/03/10 03:45:09;;;;;;;3.30;3.00;;;7.40;90.60;;;;;;5026376;28;20627;-75
2024/03/10 03:47:37;;;;;;;3.90;2.43;;;7.40;88.90;;;;;;5032324;28;20670;-75
2024/03/10 03:50:07;;;;;;;3.30;3.00;;;7.30;87.80;;;;;;5031736;28;20659;-75
2024/03/10 03:52:36;;;;;;;3.47;3.00;;;7.20;88.50;;;;;;5026597;28;20631;-75
2024/03/10 03:55:04;;;;;;;3.80;3.27;;;7.20;90.10;;;;;;5024185;28;20721;-75
2024/03/10 03:57:33;;;;;;;3.50;3.20;;;7.00;90.80;;;;;;5026448;28;21043;-75
2024/03/10 04:00:05;;;;;;;3.20;2.87;;;7.10;91.30;;;;;;5031386;28;20965;-75
2024/03/10 04:02:32;;;;;;;3.73;3.40;;;7.10;91.10;;;;;;5046871;27;20619;-75
2024/03/10 04:04:59;;;;;;;6.97;3.03;;;7.10;90.40;;;;;;5028283;28;21191;-75
2024/03/10 04:07:28;;;;;;;3.80;3.13;;;7.00;90.60;;;;;;5031729;28;20666;-75
2024/03/10 04:09:55;;;;;;;4.87;3.27;;;7.10;90.70;;;;;;5026950;28;20629;-75
2024/03/10 04:12:22;;;;;;;5.63;3.20;;;7.10;90.60;;;;;;5028443;27;20639;-75
2024/03/10 04:14:49;;;;;;;4.30;2.90;;;7.10;90.70;;;;;;5028620;28;20629;-74
2024/03/10 04:17:15;;;;;;;3.63;3.20;;;7.00;89.80;;;;;;5023530;28;20630;-75
2024/03/10 04:19:43;;;;;;;3.57;3.27;;;6.90;90.20;;;;;;5026879;28;21237;-75
2024/03/10 04:22:10;;;;;;;3.80;2.80;;;6.70;91.10;;;;;;5025398;28;20677;-75
2024/03/10 04:24:39;;;;;;;3.97;3.57;;;6.60;91.90;;;;;;5030331;27;20659;-75
2024/03/10 04:27:08;;;;;;;3.40;3.10;;;6.50;92.10;;;;;;5050126;27;20634;-75
2024/03/10 04:29:35;;;;;;;3.63;3.30;;;6.40;92.10;;;;;;5049950;27;20699;-75
2024/03/10 04:32:01;;;;;;;4.80;4.03;;;6.40;92.20;;;;;;5067710;27;20623;-74
2024/03/10 04:34:29;;;;;;;4.97;4.20;;;6.20;92.20;;;;;;5065105;27;20621;-75
2024/03/10 04:36:55;;;;;;;5.20;4.37;;;6.10;92.00;;;;;;5025992;28;20647;-74
2024/03/10 04:39:23;;;;;;;4.47;3.97;;;6.20;92.00;;;;;;5012808;28;20627;-74
2024/03/10 04:41:53;;;;;;;5.65;4.30;;;6.10;92.00;;;;;;5044566;27;20615;-74
2024/03/10 04:44:20;;;;;;;5.53;4.50;;;6.20;92.00;;;;;;5039936;27;20216;-74
2024/03/10 04:46:47;;;;;;;6.15;4.38;;;6.30;92.20;;;;;;5029131;28;20209;-74
2024/03/10 04:49:17;;;;;;;4.80;4.30;;;6.30;92.10;;;;;;5027320;28;20209;-75
2024/03/10 04:51:44;;;;;;;5.30;3.83;;;6.40;91.90;;;;;;5025994;28;20672;-74
2024/03/10 04:54:11;;;;;;;3.90;3.53;;;6.40;92.20;;;;;;5027546;28;20638;-75
2024/03/10 04:56:38;;;;;;;5.50;4.40;;;6.40;91.90;;;;;;5026495;28;20631;-74
2024/03/10 04:59:06;;;;;;;4.40;3.23;;;6.30;91.80;;;;;;5029308;28;20627;-75
2024/03/10 05:01:33;;;;;;;3.60;3.20;;;6.40;91.00;;;;;;5027397;28;20622;-75
2024/03/10 05:04:00;;;;;;;3.47;2.90;;;6.50;91.60;;;;;;5027877;27;20758;-75
2024/03/10 05:06:27;;;;;;;2.90;2.63;;;6.50;90.50;;;;;;5024976;28;20615;-75
2024/03/10 05:08:54;;;;;;;2.70;2.50;;;6.60;89.30;;;;;;5028066;28;20631;-75
2024/03/10 05:11:21;;;;;;;2.40;2.20;;;6.70;88.00;;;;;;5028282;28;20619;-75
2024/03/10 05:13:48;;;;;;;2.70;1.70;;;6.80;87.60;;;;;;5019007;28;20624;-75
2024/03/10 05:16:16;;;;;;;2.70;2.20;;;6.80;86.80;;;;;;5070115;27;20996;-75
2024/03/10 05:18:43;;;;;;;2.70;2.17;;;6.90;86.10;;;;;;5035406;28;21461;-74
2024/03/10 05:21:10;;;;;;;2.50;2.20;;;6.90;87.20;;;;;;5038899;28;20721;-75
2024/03/10 05:23:38;;;;;;;2.33;2.13;;;6.90;85.70;;;;;;5036315;28;21250;-75
2024/03/10 05:26:05;;;;;;;2.37;2.17;;;7.00;83.20;;;;;;5038757;28;20626;-74
2024/03/10 05:28:32;;;;;;;2.40;2.10;;;7.10;81.90;;;;;;5034225;28;20619;-74
2024/03/10 05:30:59;;;;;;;2.90;2.70;;;7.20;81.30;;;;;;5025048;28;20638;-74
2024/03/10 05:33:27;;;;;;;3.23;2.60;;;7.30;82.40;;;;;;5023691;28;20742;-74
2024/03/10 05:35:54;;;;;;;2.83;2.33;;;7.30;81.30;;;;;;5030910;28;20975;-74
2024/03/10 05:38:21;;;;;;;3.67;2.60;;;7.30;80.50;;;;;;5027182;28;20633;-74
2024/03/10 05:40:48;;;;;;;3.20;2.90;;;7.30;80.30;;;;;;5026294;28;20612;-74
2024/03/10 05:43:15;;;;;;;4.93;2.60;;;7.30;79.40;;;;;;5030338;28;20636;-75
2024/03/10 05:45:41;;;;;;;2.33;2.13;;;7.30;79.80;;;;;;5029126;28;20619;-75
2024/03/10 05:48:10;;;;;;;3.63;2.60;;;7.30;79.60;;;;;;5029850;28;20635;-75
2024/03/10 05:50:39;;;;;;;4.60;2.20;;;7.40;79.40;;;;;;5024894;28;21439;-75
2024/03/10 05:53:06;;;;;;;4.47;2.70;;;7.20;80.20;;;;;;5024242;28;20676;-74
2024/03/10 05:55:32;;;;;;;3.03;2.83;;;7.10;82.80;;;;;;5024684;28;20977;-74
2024/03/10 05:58:00;;;;;;;4.60;4.20;;;7.00;84.90;;;;;;5026609;28;20767;-75
2024/03/10 06:00:26;;;;;;;4.30;3.90;;;7.00;86.30;;;;;;5026448;28;20642;-75
2024/03/10 06:02:53;;;;;;;4.57;4.10;;;6.90;86.60;;;;;;5030038;28;20985;-76
2024/03/10 06:05:21;;;;;;;4.83;3.77;;;6.80;87.10;;;;;;5028242;28;20654;-76
2024/03/10 06:07:49;;;;;;;5.13;3.60;;;6.60;87.10;;;;;;5054539;28;20624;-76
2024/03/10 06:10:16;;;;;;;4.07;3.57;;;6.70;88.30;;;;;;5037754;28;20627;-75
2024/03/10 06:12:43;;;;;;;3.60;3.30;;;6.70;90.10;;;;;;5055823;27;20626;-75
2024/03/10 06:15:11;;;;;;;3.50;3.20;;;6.50;90.10;;;;;;5027560;28;20650;-75
2024/03/10 06:17:40;;;;;;;3.30;2.80;;;6.50;90.30;;;;;;5024130;28;20729;-75
2024/03/10 06:25:38;;;;;;;5.10;3.35;;;6.40;91.00;;;;;;5027185;28;20987;-75
2024/03/10 06:28:05;;;;;;;5.00;3.53;;;6.40;91.30;;;;;;5046028;27;20204;-76
2024/03/10 06:30:33;;;;;;;8.53;3.13;;;6.30;91.50;;;;;;5038081;27;20986;-75
2024/03/10 06:33:00;;;;;;;5.03;4.20;;;6.20;91.60;;;;;;5027820;28;20642;-76
2024/03/10 06:35:26;;;;;;;5.15;3.35;;;6.10;91.90;;;;;;5029548;28;20286;-75
2024/03/10 06:37:56;;;;;;;5.22;4.00;;;6.30;92.00;;;;;;5025100;28;20305;-76
2024/03/10 06:40:22;;;;;;;5.77;4.50;;;6.40;91.80;;;;;;5023478;28;20205;-72
2024/03/10 06:42:49;;;;;;;5.37;4.47;;;6.40;92.20;;;;;;5038171;28;21260;-73
2024/03/10 06:45:17;;;;;;;6.60;5.50;;;6.40;91.90;;;;;;5027868;28;20759;-73
2024/03/10 06:47:43;;;;;;;9.00;6.07;;;6.40;92.10;;;;;;5029587;28;21209;-73
2024/03/10 06:50:10;;;;;;;15.53;6.17;;;6.40;92.30;;;;;;5023454;28;20676;-74
2024/03/10 06:52:38;;;;;;;6.38;5.28;;;6.40;92.10;;;;;;5029789;28;20631;-74
2024/03/10 06:55:08;;;;;;;6.47;4.53;;;6.40;91.90;;;;;;5023691;28;20291;-73
2024/03/10 06:57:38;;;;;;;6.30;4.17;;;6.50;92.10;;;;;;5029464;28;20655;-74
2024/03/10 07:00:08;;;;;;;3.73;3.43;;;6.40;91.40;;;;;;5023806;28;20966;-74
2024/03/10 07:02:35;;;;;;;4.37;3.27;;;6.40;92.10;;;;;;5028250;28;20632;-74
2024/03/10 07:05:03;;;;;;;4.10;3.72;;;6.40;92.00;;;;;;5024303;28;20666;-74
2024/03/10 07:07:30;;;;;;;3.00;2.70;;;6.40;92.40;;;;;;5024001;28;20305;-74
2024/03/10 07:09:57;;;;;;;3.53;2.83;;;6.50;92.40;;;;;;5028463;28;20680;-75
2024/03/10 07:12:25;;;;;;;3.28;2.90;;;6.50;92.90;;;;;;5026014;28;20623;-75
2024/03/10 07:14:52;;;;;;;3.75;3.30;;;6.50;93.10;;;;;;5026973;28;20209;-75
2024/03/10 07:17:18;;;;;;;5.05;4.53;;;6.40;93.60;;;;;;5023083;28;20649;-75
2024/03/10 07:19:45;;;;;;;5.32;3.45;;;6.50;93.80;;;;;;5025412;28;20676;-75
2024/03/10 07:22:12;;;;;;;4.30;3.73;;;6.50;93.30;;;;;;5037183;27;20419;-75
2024/03/10 07:24:39;;;;;;;3.73;3.30;;;6.50;93.20;;;;;;5026008;28;20649;-75
2024/03/10 07:27:06;;;;;;;4.83;3.80;;;6.60;93.20;;;;;;5028344;28;20627;-78
2024/03/10 07:29:34;;;;;;;3.87;3.47;;;6.50;93.30;;;;;;5027325;28;20631;-85
2024/03/10 07:32:00;;;;;;;5.43;4.03;;;6.40;93.00;;;;;;5021543;28;20625;-75
2024/03/10 07:34:27;;;;;;;3.30;2.60;;;6.40;92.10;;;;;;5022787;28;20209;-77
2024/03/10 07:36:54;;;;;;;4.13;3.10;;;6.40;92.80;;;;;;5027179;27;20209;-77
2024/03/10 07:39:21;;;;;;;4.18;3.28;;;6.50;91.90;;;;;;5048929;27;20652;-78
2024/03/10 07:41:48;;;;;;;6.72;3.40;;;6.50;91.80;;;;;;5074166;27;20281;-78
2024/03/10 07:44:15;;;;;;;3.47;3.13;;;6.60;91.50;;;;;;5063621;27;20225;-80
2024/03/10 07:46:44;;;;;;;3.90;2.80;;;6.70;91.60;;;;;;5064134;27;20284;-81
2024/03/10 07:49:11;;;;;;;4.45;3.72;;;6.80;91.80;;;;;;5034832;28;20212;-79
2024/03/10 07:51:38;;;;;;;2.85;2.50;;;6.90;91.90;;;;;;5026796;28;20201;-82
2024/03/10 07:54:04;;;;;;;3.13;2.83;;;7.00;92.30;;;;;;5024788;28;20203;-80
2024/03/10 07:56:32;;;;;;;3.90;3.50;;;7.00;92.00;;;;;;5024109;28;20737;-78
2024/03/10 07:58:59;;;;;;;3.80;3.47;;;7.10;91.70;;;;;;5024222;28;20627;-76
2024/03/10 08:01:25;;;;;;;3.93;3.23;;;7.30;91.10;;;;;;5031088;28;20987;-76
2024/03/10 08:03:55;;;;;;;5.90;2.80;;;7.40;91.10;;;;;;5024884;28;21344;-76
2024/03/10 08:06:22;;;;;;;4.07;3.67;;;7.50;90.70;;;;;;5035695;27;21076;-76
2024/03/10 08:08:51;;;;;;;4.17;3.77;;;7.60;90.40;;;;;;5063512;27;20729;-78
2024/03/10 08:11:18;;;;;;;3.90;3.47;;;7.60;90.40;;;;;;5059328;27;21202;-78
2024/03/10 08:13:45;;;;;;;3.43;3.03;;;7.70;91.00;;;;;;5047336;27;21107;-73
2024/03/10 08:16:13;;;;;;;4.87;3.73;;;7.70;90.50;;;;;;5019210;28;20973;-74
2024/03/10 08:18:40;;;;;;;4.47;3.70;;;7.80;90.80;;;;;;5033080;28;21164;-74
2024/03/10 08:21:10;;;;;;;5.10;3.73;;;7.90;90.80;;;;;;5027091;28;20634;-71
2024/03/10 08:23:38;;;;;;;3.97;3.47;;;7.90;90.60;;;;;;5025978;28;20619;-73
2024/03/10 08:26:04;;;;;;;4.20;3.60;;;8.00;90.70;;;;;;5027911;27;21298;-73
2024/03/10 08:28:31;;;;;;;3.90;3.37;;;8.00;91.00;;;;;;5038811;27;20625;-71
2024/03/10 08:30:59;;;;;;;4.80;3.80;;;8.10;90.50;;;;;;5026597;28;20683;-73
2024/03/10 08:33:25;;;;;;;5.60;5.10;;;8.20;90.70;;;;;;5047609;27;21020;-73
2024/03/10 08:35:53;;;;;;;6.47;5.87;;;8.20;90.60;;;;;;5021154;28;20688;-75
2024/03/10 08:38:21;;;;;;;4.40;3.97;;;8.30;91.20;;;;;;5020263;28;20634;-72
2024/03/10 08:40:48;;;;;;;4.13;3.80;;;8.30;91.20;;;;;;5029496;28;20634;-73
2024/03/10 08:43:14;;;;;;;4.90;4.43;;;8.30;90.50;;;;;;5052780;27;20944;-72
2024/03/10 08:45:44;;;;;;;3.73;3.33;;;8.30;90.50;;;;;;5020145;28;20656;-71
2024/03/10 08:48:11;;;;;;;4.23;3.93;;;8.30;91.10;;;;;;5021841;28;20686;-73
2024/03/10 08:50:40;;;;;;;4.60;3.23;;;8.30;91.10;;;;;;5020519;28;20711;-73
2024/03/10 08:53:08;;;;;;;3.37;3.07;;;8.40;90.70;;;;;;5019686;28;20631;-76
2024/03/10 08:55:36;;;;;;;8.40;4.63;;;8.50;89.80;;;;;;5024963;28;20627;-77
2024/03/10 08:58:03;;;;;;;3.00;2.70;;;8.60;89.20;;;;;;5027763;28;20727;-74
2024/03/10 09:00:31;;;;;;;3.50;3.00;;;8.70;90.00;;;;;;5074078;27;20619;-74
2024/03/10 09:02:58;;;;;;;3.70;3.27;;;8.80;88.50;;;;;;5062488;27;20636;-78
2024/03/10 09:05:25;;;;;;;3.97;3.17;;;8.80;87.90;;;;;;5035191;27;21140;-78
2024/03/10 09:07:53;;;;;;;5.00;3.90;;;8.90;90.10;;;;;;5023160;28;20965;-75
2024/03/10 09:10:23;;;;;;;4.87;3.67;;;8.90;90.50;;;;;;5025310;28;20670;-77
2024/03/10 09:12:51;;;;;;;4.30;3.90;;;8.90;88.40;;;;;;5028276;28;20723;-76
2024/03/10 09:15:19;;;;;;;6.10;4.57;;;8.90;88.40;;;;;;5027575;28;21208;-76
2024/03/10 09:17:45;;;;;;;4.13;3.47;;;9.00;87.50;;;;;;5016721;28;20635;-76
2024/03/10 09:20:13;;;;;;;3.70;3.20;;;9.20;88.40;;;;;;5023425;28;20654;-77
2024/03/10 09:22:40;;;;;;;3.27;2.97;;;9.40;86.80;;;;;;5026974;28;20640;-77
2024/03/10 09:25:12;;;;;;;3.27;3.00;;;9.30;86.20;;;;;;5023383;28;20677;-77
2024/03/10 09:27:41;;;;;;;3.33;2.87;;;9.40;84.20;;;;;;5028072;28;20620;-77
2024/03/10 09:30:13;;;;;;;4.13;3.03;;;9.40;84.10;;;;;;5020795;28;20628;-77
2024/03/10 09:32:42;;;;;;;2.80;2.60;;;9.50;85.20;;;;;;5020576;28;20651;-78
2024/03/10 09:35:10;;;;;;;3.57;3.23;;;9.70;84.30;;;;;;5022160;28;20633;-78
2024/03/10 09:37:39;;;;;;;3.00;2.80;;;9.70;83.90;;;;;;5020906;28;20771;-77
2024/03/10 09:40:10;;;;;;;5.00;2.97;;;9.80;84.80;;;;;;5023183;28;21311;-77
2024/03/10 09:42:37;;;;;;;3.10;2.80;;;9.90;82.90;;;;;;5050050;27;20756;-77
2024/03/10 09:45:06;;;;;;;3.27;2.97;;;9.90;83.80;;;;;;5021770;28;20661;-77
2024/03/10 09:47:35;;;;;;;2.97;2.67;;;10.00;83.00;;;;;;5037798;27;20736;-76
2024/03/10 09:50:05;;;;;;;7.93;3.27;;;10.10;84.10;;;;;;5021512;28;20764;-76
2024/03/10 09:52:33;;;;;;;2.93;2.73;;;10.10;81.80;;;;;;5023506;28;20637;-76
2024/03/10 09:55:04;;;;;;;2.73;2.53;;;10.20;83.00;;;;;;5033400;27;20641;-76
2024/03/10 09:57:31;;;;;;;3.00;2.70;;;10.40;83.30;;;;;;5087832;27;20657;-77
2024/03/10 10:00:00;;;;;;;3.37;3.00;;;10.30;80.00;;;;;;5047613;27;20725;-77
2024/03/10 10:02:42;;;;;;;3.07;2.87;;;10.30;80.90;;;;;;5021390;28;20641;-77
2024/03/10 10:05:24;;;;;;;2.87;2.50;;;10.30;80.00;;;;;;5018860;28;20662;-77
2024/03/10 10:07:52;;;;;;;3.00;2.70;;;10.40;81.30;;;;;;5019238;28;20749;-77
2024/03/10 10:10:20;;;;;;;2.73;2.43;;;10.40;81.10;;;;;;5025445;28;20688;-77
2024/03/10 10:12:47;;;;;;;4.67;2.80;;;10.50;83.00;;;;;;5020395;28;20623;-77
2024/03/10 10:15:17;;;;;;;3.40;3.10;;;10.60;81.50;;;;;;5014555;28;20677;-77
2024/03/10 10:17:54;;;;;;;3.10;2.80;;;10.60;81.20;;;;;;5027877;27;20637;-77
2024/03/10 10:20:24;;;;;;;4.27;3.90;;;10.50;81.00;;;;;;5023394;28;21615;-77
2024/03/10 10:22:52;;;;;;;3.40;3.10;;;10.60;80.70;;;;;;5019892;28;20623;-77
2024/03/10 10:25:19;;;;;;;4.63;3.17;;;10.60;80.00;;;;;;5015578;28;20660;-77
2024/03/10 10:27:49;;;;;;;3.00;2.70;;;10.70;80.90;;;;;;5018602;28;20625;-77
2024/03/10 10:30:19;;;;;;;3.73;2.77;;;10.70;79.40;;;;;;5015255;28;20763;-77
2024/03/10 10:32:47;;;;;;;2.90;2.47;;;10.80;81.90;;;;;;5017267;28;20933;-77
2024/03/10 10:35:16;;;;;;;3.20;2.90;;;10.80;79.90;;;;;;5014605;28;20977;-78
2024/03/10 10:37:46;;;;;;;3.43;2.73;;;10.80;79.00;;;;;;5016679;28;20631;-76
2024/03/10 10:40:14;;;;;;;2.50;2.30;;;10.80;80.00;;;;;;5019894;28;20632;-77
2024/03/10 10:42:41;;;;;;;2.70;2.43;;;10.80;79.80;;;;;;5030239;28;20616;-77
2024/03/10 10:45:09;;;;;;;2.60;2.40;;;10.70;79.50;;;;;;5027146;27;20664;-78
2024/03/10 10:47:37;;;;;;;4.00;2.57;;;10.70;80.30;;;;;;5066743;28;20975;-80
2024/03/10 10:50:14;;;;;;;2.53;2.33;;;10.60;78.60;;;;;;5093127;28;21201;-79
2024/03/10 10:52:43;;;;;;;3.37;2.37;;;10.70;80.30;;;;;;5044067;28;21171;-80
2024/03/10 10:55:11;;;;;;;3.10;2.60;;;10.80;80.20;;;;;;5035448;28;20641;-83
2024/03/10 10:57:42;;;;;;;3.20;2.90;;;10.90;81.20;;;;;;5025774;28;20716;-81
2024/03/10 11:00:26;;;;;;;10.93;3.50;;;11.00;81.80;;;;;;5033929;28;20636;-82
2024/03/10 11:03:06;;;;;;;6.43;3.00;;;11.00;80.60;;;;;;5028226;28;20980;-77
2024/03/10 11:05:33;;;;;;;2.80;2.57;;;11.00;82.60;;;;;;5023121;28;20758;-76
2024/03/10 11:08:04;;;;;;;3.00;2.80;;;11.10;79.80;;;;;;5020832;28;20979;-77
2024/03/10 11:10:46;;;;;;;3.90;2.93;;;11.00;80.80;;;;;;5025291;28;20637;-77
2024/03/10 11:13:14;;;;;;;2.97;2.77;;;11.10;79.90;;;;;;5038231;27;20987;-77
2024/03/10 11:15:42;;;;;;;4.00;2.70;;;11.10;78.20;;;;;;5020563;28;20623;-77
2024/03/10 11:18:28;;;;;;;7.20;2.80;;;11.00;79.00;;;;;;5022142;28;20662;-77
2024/03/10 11:20:56;;;;;;;3.05;2.70;;;11.00;79.40;;;;;;5020698;28;21099;-77
2024/03/10 11:23:27;;;;;;;5.73;3.00;;;11.10;81.40;;;;;;5018538;28;21198;-77
2024/03/10 11:25:53;;;;;;;3.43;2.33;;;11.20;79.80;;;;;;5022558;28;21006;-77
2024/03/10 11:28:25;;;;;;;3.63;2.53;;;11.40;81.50;;;;;;5020422;28;20660;-77
2024/03/10 11:30:55;;;;;;;3.13;2.83;;;11.50;81.90;;;;;;5023101;28;20863;-77
2024/03/10 11:33:23;;;;;;;3.10;2.80;;;11.50;80.40;;;;;;5016791;28;20744;-78
2024/03/10 11:35:52;;;;;;;3.20;2.90;;;11.40;79.20;;;;;;5023398;28;20647;-78
2024/03/10 11:38:20;;;;;;;2.87;2.43;;;11.30;79.40;;;;;;5028409;28;20629;-75
2024/03/10 11:40:57;;;;;;;3.63;3.33;;;11.40;80.90;;;;;;5025278;28;20631;-75
2024/03/10 11:43:25;;;;;;;2.57;2.37;;;11.50;80.50;;;;;;5046369;27;20632;-73
2024/03/10 11:45:53;;;;;;;2.60;2.00;;;11.40;77.90;;;;;;5035547;27;20650;-73
2024/03/10 11:48:20;;;;;;;4.33;2.97;;;11.40;79.80;;;;;;5082814;27;20627;-73
2024/03/10 11:50:49;;;;;;;3.17;2.90;;;11.50;79.60;;;;;;5045078;27;20653;-74
2024/03/10 11:53:16;;;;;;;3.60;3.30;;;11.50;79.10;;;;;;5066948;27;20675;-75
2024/03/10 11:55:44;;;;;;;4.03;2.57;;;11.50;78.90;;;;;;5049816;27;21063;-74
2024/03/10 11:58:13;;;;;;;3.27;2.80;;;11.50;78.90;;;;;;5051791;27;20689;-74
2024/03/10 12:00:41;;;;;;;3.20;2.90;;;11.60;80.30;;;;;;5031750;28;20631;-74
2024/03/10 12:03:08;;;;;;;2.60;2.40;;;11.60;80.50;;;;;;5053202;27;20625;-74
2024/03/10 12:05:35;;;;;;;3.00;2.70;;;11.70;80.30;;;;;;5033534;28;20996;-74
2024/03/10 12:08:05;;;;;;;2.97;2.77;;;11.80;80.70;;;;;;5050493;27;20623;-77
2024/03/10 12:10:32;;;;;;;3.57;2.90;;;11.80;79.60;;;;;;5036568;28;20636;-73
2024/03/10 12:12:59;;;;;;;2.90;2.60;;;11.90;79.90;;;;;;5051908;27;20672;-75
2024/03/10 12:15:29;;;;;;;6.60;2.70;;;11.80;78.10;;;;;;5049348;27;20625;-76
2024/03/10 12:18:00;;;;;;;3.23;2.97;;;12.00;80.30;;;;;;5041583;27;20637;-73
2024/03/10 12:20:29;;;;;;;2.70;2.43;;;12.00;78.00;;;;;;5053285;27;20979;-74
2024/03/10 12:22:58;;;;;;;4.00;3.40;;;11.90;79.20;;;;;;5048119;27;20693;-75
2024/03/10 12:25:28;;;;;;;2.30;2.10;;;11.90;79.70;;;;;;5042184;27;20720;-78
2024/03/10 12:27:56;;;;;;;3.40;3.20;;;11.90;80.20;;;;;;5052243;27;20674;-77
2024/03/10 12:30:27;;;;;;;3.50;2.67;;;11.80;79.50;;;;;;5040926;27;20649;-77
2024/03/10 12:32:55;;;;;;;2.70;2.13;;;11.80;78.10;;;;;;5037803;28;20637;-78
2024/03/10 12:35:22;;;;;;;2.90;2.60;;;11.70;79.20;;;;;;5042833;27;20970;-78
2024/03/10 12:37:49;;;;;;;3.40;2.40;;;11.60;79.10;;;;;;5047583;27;20617;-78
2024/03/10 12:40:16;;;;;;;3.67;2.83;;;11.60;78.10;;;;;;5045715;27;20713;-78
2024/03/10 12:42:44;;;;;;;3.17;2.87;;;11.70;79.50;;;;;;5048908;27;20681;-78
2024/03/10 12:45:15;;;;;;;3.37;3.03;;;11.70;80.30;;;;;;5034992;27;20689;-78
2024/03/10 12:47:43;;;;;;;2.70;2.47;;;11.60;78.90;;;;;;5035284;28;20639;-78
2024/03/10 12:50:12;;;;;;;2.80;2.60;;;11.60;78.50;;;;;;5036424;28;21109;-77
2024/03/10 12:52:42;;;;;;;2.47;2.27;;;11.60;78.60;;;;;;5035693;28;20627;-78
2024/03/10 12:55:09;;;;;;;2.60;2.40;;;11.50;78.20;;;;;;5034379;28;20631;-78
2024/03/10 12:57:36;;;;;;;13.87;4.30;;;11.40;77.40;;;;;;5034712;28;21151;-78
2024/03/10 13:00:07;;;;;;;2.70;2.30;;;11.60;78.60;;;;;;5032509;28;20623;-78
2024/03/10 13:02:33;;;;;;;2.73;2.30;;;11.60;77.90;;;;;;5045845;27;20634;-78
2024/03/10 13:05:00;;;;;;;3.00;2.57;;;11.60;78.20;;;;;;5036087;28;20746;-78
2024/03/10 13:07:28;;;;;;;4.40;2.57;;;11.60;78.10;;;;;;5033274;28;20767;-78
2024/03/10 13:10:10;;;;;;;3.17;2.67;;;11.60;77.70;;;;;;5041043;27;20985;-78
2024/03/10 13:12:37;;;;;;;2.63;2.30;;;11.60;77.40;;;;;;5024231;28;20618;-78
2024/03/10 13:15:06;;;;;;;3.10;2.20;;;11.60;77.90;;;;;;5020548;28;20639;-78
2024/03/10 13:17:33;;;;;;;2.40;2.30;;;11.50;78.50;;;;;;5021312;28;20632;-77
2024/03/10 13:20:00;;;;;;;2.97;2.70;;;11.60;79.50;;;;;;5026385;28;20688;-78